sensor_id;sensor_type;location;lat;lon;timestamp;P1;durP1;ratioP1;P2;durP2;ratioP2
35743;SDS011;21867;52.012;4.324;2023-02-11T00:00:55;17.87;;;6.13;;
35743;SDS011;21867;52.012;4.324;2023-02-11T00:03:22;20.53;;;7.50;;
35743;SDS011;21867;52.012;4.324;2023-02-11T00:05:57;19.57;;;6.00;;
35743;SDS011;21867;52.012;4.324;2023-02-11T00:08:24;17.47;;;6.07;;
35743;SDS011;21867;52.012;4.324;2023-02-11T00:10:52;24.70;;;6.93;;
35743;SDS011;21867;52.012;4.324;2023-02-11T00:13:21;19.27;;;5.47;;
35743;SDS011;21867;52.012;4.324;2023-02-11T00:15:48;17.93;;;5.73;;
35743;SDS011;21867;52.012;4.324;2023-02-11T00:18:16;18.30;;;5.37;;
35743;SDS011;21867;52.012;4.324;2023-02-11T00:20:43;19.63;;;7.10;;
35743;SDS011;21867;52.012;4.324;2023-02-11T00:23:11;16.00;;;5.33;;
35743;SDS011;21867;52.012;4.324;2023-02-11T00:25:38;13.80;;;4.70;;
35743;SDS011;21867;52.012;4.324;2023-02-11T00:28:06;17.50;;;5.23;;
35743;SDS011;21867;52.012;4.324;2023-02-11T00:30:35;19.17;;;5.87;;
35743;SDS011;21867;52.012;4.324;2023-02-11T00:33:02;25.13;;;5.63;;
35743;SDS011;21867;52.012;4.324;2023-02-11T00:35:30;30.57;;;9.13;;
35743;SDS011;21867;52.012;4.324;2023-02-11T00:37:58;19.13;;;5.60;;
35743;SDS011;21867;52.012;4.324;2023-02-11T00:40:26;19.40;;;6.57;;
35743;SDS011;21867;52.012;4.324;2023-02-11T00:42:53;18.97;;;6.20;;
35743;SDS011;21867;52.012;4.324;2023-02-11T00:45:36;19.90;;;5.33;;
35743;SDS011;21867;52.012;4.324;2023-02-11T00:48:04;18.83;;;6.67;;
35743;SDS011;21867;52.012;4.324;2023-02-11T00:50:31;15.47;;;6.13;;
35743;SDS011;21867;52.012;4.324;2023-02-11T00:52:58;17.00;;;6.27;;
35743;SDS011;21867;52.012;4.324;2023-02-11T00:58:49;18.47;;;5.67;;
35743;SDS011;21867;52.012;4.324;2023-02-11T01:01:18;17.83;;;5.00;;
35743;SDS011;21867;52.012;4.324;2023-02-11T01:03:45;14.33;;;6.37;;
35743;SDS011;21867;52.012;4.324;2023-02-11T01:06:13;19.53;;;6.03;;
35743;SDS011;21867;52.012;4.324;2023-02-11T01:08:40;15.00;;;5.17;;
35743;SDS011;21867;52.012;4.324;2023-02-11T01:11:10;20.13;;;5.83;;
35743;SDS011;21867;52.012;4.324;2023-02-11T01:13:38;12.13;;;5.90;;
35743;SDS011;21867;52.012;4.324;2023-02-11T01:16:05;16.00;;;5.73;;
35743;SDS011;21867;52.012;4.324;2023-02-11T01:18:35;13.40;;;5.13;;
35743;SDS011;21867;52.012;4.324;2023-02-11T01:21:02;19.83;;;5.37;;
35743;SDS011;21867;52.012;4.324;2023-02-11T01:23:30;11.90;;;5.43;;
35743;SDS011;21867;52.012;4.324;2023-02-11T01:25:57;12.10;;;5.00;;
35743;SDS011;21867;52.012;4.324;2023-02-11T01:28:28;14.37;;;6.10;;
35743;SDS011;21867;52.012;4.324;2023-02-11T01:30:58;18.27;;;7.20;;
35743;SDS011;21867;52.012;4.324;2023-02-11T01:33:25;16.10;;;6.60;;
35743;SDS011;21867;52.012;4.324;2023-02-11T01:35:54;18.17;;;7.03;;
35743;SDS011;21867;52.012;4.324;2023-02-11T01:38:23;12.00;;;6.30;;
35743;SDS011;21867;52.012;4.324;2023-02-11T01:40:52;16.00;;;6.90;;
35743;SDS011;21867;52.012;4.324;2023-02-11T01:43:21;18.87;;;6.47;;
35743;SDS011;21867;52.012;4.324;2023-02-11T01:46:00;18.17;;;6.77;;
35743;SDS011;21867;52.012;4.324;2023-02-11T01:48:29;21.17;;;6.80;;
35743;SDS011;21867;52.012;4.324;2023-02-11T01:51:00;16.53;;;7.07;;
35743;SDS011;21867;52.012;4.324;2023-02-11T01:53:27;16.97;;;7.27;;
35743;SDS011;21867;52.012;4.324;2023-02-11T01:55:55;16.70;;;7.40;;
35743;SDS011;21867;52.012;4.324;2023-02-11T01:58:23;15.87;;;6.87;;
35743;SDS011;21867;52.012;4.324;2023-02-11T02:00:50;17.10;;;6.83;;
35743;SDS011;21867;52.012;4.324;2023-02-11T02:03:18;19.73;;;7.57;;
35743;SDS011;21867;52.012;4.324;2023-02-11T02:05:46;17.57;;;7.20;;
35743;SDS011;21867;52.012;4.324;2023-02-11T02:08:16;14.80;;;7.20;;
35743;SDS011;21867;52.012;4.324;2023-02-11T02:10:46;19.10;;;8.10;;
35743;SDS011;21867;52.012;4.324;2023-02-11T02:13:15;16.97;;;8.23;;
35743;SDS011;21867;52.012;4.324;2023-02-11T02:15:43;17.50;;;7.83;;
35743;SDS011;21867;52.012;4.324;2023-02-11T02:18:18;19.47;;;7.67;;
35743;SDS011;21867;52.012;4.324;2023-02-11T02:20:57;16.70;;;8.03;;
35743;SDS011;21867;52.012;4.324;2023-02-11T02:23:35;15.50;;;8.07;;
35743;SDS011;21867;52.012;4.324;2023-02-11T02:26:21;16.07;;;8.20;;
35743;SDS011;21867;52.012;4.324;2023-02-11T02:31:44;14.83;;;8.40;;
35743;SDS011;21867;52.012;4.324;2023-02-11T02:34:18;16.80;;;7.47;;
35743;SDS011;21867;52.012;4.324;2023-02-11T02:36:52;22.10;;;9.20;;
35743;SDS011;21867;52.012;4.324;2023-02-11T02:39:21;15.60;;;7.97;;
35743;SDS011;21867;52.012;4.324;2023-02-11T02:41:50;19.37;;;8.97;;
35743;SDS011;21867;52.012;4.324;2023-02-11T02:44:18;18.23;;;9.27;;
35743;SDS011;21867;52.012;4.324;2023-02-11T02:46:46;16.67;;;9.20;;
35743;SDS011;21867;52.012;4.324;2023-02-11T02:49:14;12.30;;;8.33;;
35743;SDS011;21867;52.012;4.324;2023-02-11T02:51:46;21.37;;;10.30;;
35743;SDS011;21867;52.012;4.324;2023-02-11T02:54:25;21.60;;;11.13;;
35743;SDS011;21867;52.012;4.324;2023-02-11T02:56:55;23.50;;;10.23;;
35743;SDS011;21867;52.012;4.324;2023-02-11T02:59:28;17.17;;;9.97;;
35743;SDS011;21867;52.012;4.324;2023-02-11T03:02:02;22.07;;;11.07;;
35743;SDS011;21867;52.012;4.324;2023-02-11T03:04:33;19.57;;;10.30;;
35743;SDS011;21867;52.012;4.324;2023-02-11T03:07:04;20.97;;;10.37;;
35743;SDS011;21867;52.012;4.324;2023-02-11T03:09:36;19.67;;;10.70;;
35743;SDS011;21867;52.012;4.324;2023-02-11T03:12:05;21.87;;;9.77;;
35743;SDS011;21867;52.012;4.324;2023-02-11T03:14:33;21.70;;;8.47;;
35743;SDS011;21867;52.012;4.324;2023-02-11T03:17:03;16.40;;;8.73;;
35743;SDS011;21867;52.012;4.324;2023-02-11T03:19:32;25.77;;;9.30;;
35743;SDS011;21867;52.012;4.324;2023-02-11T03:22:01;17.20;;;8.13;;
35743;SDS011;21867;52.012;4.324;2023-02-11T03:24:30;18.10;;;8.73;;
35743;SDS011;21867;52.012;4.324;2023-02-11T03:27:00;25.50;;;8.30;;
35743;SDS011;21867;52.012;4.324;2023-02-11T03:29:30;15.87;;;8.20;;
35743;SDS011;21867;52.012;4.324;2023-02-11T03:32:00;15.67;;;7.20;;
35743;SDS011;21867;52.012;4.324;2023-02-11T03:34:31;14.87;;;7.30;;
35743;SDS011;21867;52.012;4.324;2023-02-11T03:37:00;16.67;;;8.40;;
35743;SDS011;21867;52.012;4.324;2023-02-11T03:39:32;19.77;;;7.70;;
35743;SDS011;21867;52.012;4.324;2023-02-11T03:42:01;16.53;;;8.33;;
35743;SDS011;21867;52.012;4.324;2023-02-11T03:44:30;17.27;;;8.60;;
35743;SDS011;21867;52.012;4.324;2023-02-11T03:46:58;21.63;;;8.67;;
35743;SDS011;21867;52.012;4.324;2023-02-11T03:49:27;18.27;;;9.83;;
35743;SDS011;21867;52.012;4.324;2023-02-11T03:51:54;15.60;;;8.27;;
35743;SDS011;21867;52.012;4.324;2023-02-11T03:54:23;16.03;;;9.00;;
35743;SDS011;21867;52.012;4.324;2023-02-11T03:56:54;21.10;;;8.73;;
35743;SDS011;21867;52.012;4.324;2023-02-11T03:59:22;23.63;;;8.40;;
35743;SDS011;21867;52.012;4.324;2023-02-11T04:01:49;17.70;;;9.07;;
35743;SDS011;21867;52.012;4.324;2023-02-11T04:04:17;19.10;;;8.73;;
35743;SDS011;21867;52.012;4.324;2023-02-11T04:06:44;20.20;;;9.07;;
35743;SDS011;21867;52.012;4.324;2023-02-11T04:09:11;23.23;;;9.60;;
35743;SDS011;21867;52.012;4.324;2023-02-11T04:11:39;20.73;;;9.80;;
35743;SDS011;21867;52.012;4.324;2023-02-11T04:14:07;18.57;;;8.63;;
35743;SDS011;21867;52.012;4.324;2023-02-11T04:16:35;20.80;;;9.37;;
35743;SDS011;21867;52.012;4.324;2023-02-11T04:19:02;22.17;;;10.30;;
35743;SDS011;21867;52.012;4.324;2023-02-11T04:21:29;21.13;;;10.30;;
35743;SDS011;21867;52.012;4.324;2023-02-11T04:23:57;20.03;;;10.20;;
35743;SDS011;21867;52.012;4.324;2023-02-11T04:26:24;15.73;;;10.47;;
35743;SDS011;21867;52.012;4.324;2023-02-11T04:28:51;23.57;;;11.30;;
35743;SDS011;21867;52.012;4.324;2023-02-11T04:31:20;22.43;;;13.07;;
35743;SDS011;21867;52.012;4.324;2023-02-11T04:33:47;24.27;;;12.73;;
35743;SDS011;21867;52.012;4.324;2023-02-11T04:36:15;20.23;;;11.80;;
35743;SDS011;21867;52.012;4.324;2023-02-11T04:38:42;21.27;;;10.83;;
35743;SDS011;21867;52.012;4.324;2023-02-11T04:41:09;19.27;;;10.73;;
35743;SDS011;21867;52.012;4.324;2023-02-11T04:43:36;18.43;;;10.53;;
35743;SDS011;21867;52.012;4.324;2023-02-11T04:46:04;19.37;;;10.07;;
35743;SDS011;21867;52.012;4.324;2023-02-11T04:48:32;23.10;;;10.70;;
35743;SDS011;21867;52.012;4.324;2023-02-11T04:51:00;27.43;;;10.33;;
35743;SDS011;21867;52.012;4.324;2023-02-11T04:53:27;23.63;;;10.80;;
35743;SDS011;21867;52.012;4.324;2023-02-11T04:55:54;18.90;;;11.17;;
35743;SDS011;21867;52.012;4.324;2023-02-11T04:58:21;17.73;;;11.20;;
35743;SDS011;21867;52.012;4.324;2023-02-11T05:00:49;24.07;;;12.47;;
35743;SDS011;21867;52.012;4.324;2023-02-11T05:03:16;17.17;;;10.87;;
35743;SDS011;21867;52.012;4.324;2023-02-11T05:05:50;18.83;;;11.40;;
35743;SDS011;21867;52.012;4.324;2023-02-11T05:08:18;22.17;;;12.43;;
35743;SDS011;21867;52.012;4.324;2023-02-11T05:10:45;19.07;;;12.17;;
35743;SDS011;21867;52.012;4.324;2023-02-11T05:13:13;28.50;;;13.43;;
35743;SDS011;21867;52.012;4.324;2023-02-11T05:15:40;28.27;;;13.13;;
35743;SDS011;21867;52.012;4.324;2023-02-11T05:18:07;21.40;;;13.73;;
35743;SDS011;21867;52.012;4.324;2023-02-11T05:20:36;27.17;;;14.33;;
35743;SDS011;21867;52.012;4.324;2023-02-11T05:23:05;25.67;;;15.13;;
35743;SDS011;21867;52.012;4.324;2023-02-11T05:25:32;20.47;;;14.20;;
35743;SDS011;21867;52.012;4.324;2023-02-11T05:27:59;25.87;;;14.70;;
35743;SDS011;21867;52.012;4.324;2023-02-11T05:30:27;24.10;;;15.17;;
35743;SDS011;21867;52.012;4.324;2023-02-11T05:32:54;20.17;;;14.30;;
35743;SDS011;21867;52.012;4.324;2023-02-11T05:35:22;28.13;;;15.37;;
35743;SDS011;21867;52.012;4.324;2023-02-11T05:37:49;23.47;;;16.17;;
35743;SDS011;21867;52.012;4.324;2023-02-11T05:40:18;27.20;;;16.83;;
35743;SDS011;21867;52.012;4.324;2023-02-11T05:42:45;27.37;;;14.93;;
35743;SDS011;21867;52.012;4.324;2023-02-11T05:45:13;23.07;;;15.63;;
35743;SDS011;21867;52.012;4.324;2023-02-11T05:47:40;25.00;;;15.47;;
35743;SDS011;21867;52.012;4.324;2023-02-11T05:50:07;22.23;;;13.97;;
35743;SDS011;21867;52.012;4.324;2023-02-11T05:52:35;25.43;;;15.00;;
35743;SDS011;21867;52.012;4.324;2023-02-11T05:55:03;24.53;;;16.07;;
35743;SDS011;21867;52.012;4.324;2023-02-11T05:57:31;27.30;;;16.43;;
35743;SDS011;21867;52.012;4.324;2023-02-11T05:59:59;20.67;;;15.37;;
35743;SDS011;21867;52.012;4.324;2023-02-11T06:02:26;23.90;;;13.63;;
35743;SDS011;21867;52.012;4.324;2023-02-11T06:04:53;22.97;;;15.17;;
35743;SDS011;21867;52.012;4.324;2023-02-11T06:07:21;27.20;;;16.30;;
35743;SDS011;21867;52.012;4.324;2023-02-11T06:09:48;28.83;;;17.30;;
35743;SDS011;21867;52.012;4.324;2023-02-11T06:12:15;22.20;;;15.13;;
35743;SDS011;21867;52.012;4.324;2023-02-11T06:14:44;23.90;;;16.17;;
35743;SDS011;21867;52.012;4.324;2023-02-11T06:17:11;26.40;;;16.60;;
35743;SDS011;21867;52.012;4.324;2023-02-11T06:19:41;25.20;;;15.57;;
35743;SDS011;21867;52.012;4.324;2023-02-11T06:22:08;29.10;;;16.57;;
35743;SDS011;21867;52.012;4.324;2023-02-11T06:24:36;19.97;;;14.33;;
35743;SDS011;21867;52.012;4.324;2023-02-11T06:27:23;22.40;;;14.87;;
35743;SDS011;21867;52.012;4.324;2023-02-11T06:29:52;24.33;;;16.10;;
35743;SDS011;21867;52.012;4.324;2023-02-11T06:32:19;28.30;;;15.53;;
35743;SDS011;21867;52.012;4.324;2023-02-11T06:35:06;22.87;;;16.10;;
35743;SDS011;21867;52.012;4.324;2023-02-11T06:37:37;24.13;;;16.27;;
35743;SDS011;21867;52.012;4.324;2023-02-11T06:40:05;20.03;;;13.33;;
35743;SDS011;21867;52.012;4.324;2023-02-11T06:42:32;27.00;;;16.03;;
35743;SDS011;21867;52.012;4.324;2023-02-11T06:45:01;27.80;;;16.23;;
35743;SDS011;21867;52.012;4.324;2023-02-11T06:47:28;23.33;;;14.27;;
35743;SDS011;21867;52.012;4.324;2023-02-11T06:49:55;23.17;;;14.97;;
35743;SDS011;21867;52.012;4.324;2023-02-11T06:52:22;28.67;;;15.87;;
35743;SDS011;21867;52.012;4.324;2023-02-11T06:54:50;27.77;;;14.97;;
35743;SDS011;21867;52.012;4.324;2023-02-11T06:57:17;23.47;;;18.03;;
35743;SDS011;21867;52.012;4.324;2023-02-11T06:59:44;19.60;;;11.00;;
35743;SDS011;21867;52.012;4.324;2023-02-11T07:02:13;29.03;;;17.27;;
35743;SDS011;21867;52.012;4.324;2023-02-11T07:04:40;26.33;;;18.53;;
35743;SDS011;21867;52.012;4.324;2023-02-11T07:07:07;19.47;;;14.47;;
35743;SDS011;21867;52.012;4.324;2023-02-11T07:09:35;23.27;;;16.63;;
35743;SDS011;21867;52.012;4.324;2023-02-11T07:12:02;22.40;;;17.37;;
35743;SDS011;21867;52.012;4.324;2023-02-11T07:14:29;23.17;;;17.47;;
35743;SDS011;21867;52.012;4.324;2023-02-11T07:16:57;31.67;;;17.07;;
35743;SDS011;21867;52.012;4.324;2023-02-11T07:19:25;23.57;;;17.00;;
35743;SDS011;21867;52.012;4.324;2023-02-11T07:21:52;25.83;;;15.53;;
35743;SDS011;21867;52.012;4.324;2023-02-11T07:24:20;29.50;;;17.03;;
35743;SDS011;21867;52.012;4.324;2023-02-11T07:26:47;20.07;;;14.03;;
35743;SDS011;21867;52.012;4.324;2023-02-11T07:29:14;18.27;;;13.40;;
35743;SDS011;21867;52.012;4.324;2023-02-11T07:31:41;21.60;;;13.27;;
35743;SDS011;21867;52.012;4.324;2023-02-11T07:34:09;18.33;;;12.23;;
35743;SDS011;21867;52.012;4.324;2023-02-11T07:36:38;17.43;;;13.53;;
35743;SDS011;21867;52.012;4.324;2023-02-11T07:39:05;15.17;;;11.67;;
35743;SDS011;21867;52.012;4.324;2023-02-11T07:41:32;24.20;;;17.20;;
35743;SDS011;21867;52.012;4.324;2023-02-11T07:44:03;25.17;;;14.27;;
35743;SDS011;21867;52.012;4.324;2023-02-11T07:46:31;27.90;;;16.83;;
35743;SDS011;21867;52.012;4.324;2023-02-11T07:48:58;24.13;;;15.20;;
35743;SDS011;21867;52.012;4.324;2023-02-11T07:51:27;23.67;;;14.40;;
35743;SDS011;21867;52.012;4.324;2023-02-11T07:53:56;23.33;;;13.87;;
35743;SDS011;21867;52.012;4.324;2023-02-11T07:56:23;20.83;;;15.57;;
35743;SDS011;21867;52.012;4.324;2023-02-11T07:58:51;23.30;;;15.77;;
35743;SDS011;21867;52.012;4.324;2023-02-11T08:01:19;23.90;;;15.37;;
35743;SDS011;21867;52.012;4.324;2023-02-11T08:03:47;26.33;;;17.67;;
35743;SDS011;21867;52.012;4.324;2023-02-11T08:06:15;27.13;;;14.83;;
35743;SDS011;21867;52.012;4.324;2023-02-11T08:08:43;21.77;;;13.70;;
35743;SDS011;21867;52.012;4.324;2023-02-11T08:11:12;26.37;;;16.80;;
35743;SDS011;21867;52.012;4.324;2023-02-11T08:13:40;25.63;;;12.60;;
35743;SDS011;21867;52.012;4.324;2023-02-11T08:16:07;31.63;;;17.73;;
35743;SDS011;21867;52.012;4.324;2023-02-11T08:18:35;27.60;;;13.63;;
35743;SDS011;21867;52.012;4.324;2023-02-11T08:21:03;22.67;;;11.77;;
35743;SDS011;21867;52.012;4.324;2023-02-11T08:23:30;31.07;;;17.57;;
35743;SDS011;21867;52.012;4.324;2023-02-11T08:25:59;19.87;;;11.70;;
35743;SDS011;21867;52.012;4.324;2023-02-11T08:28:28;18.77;;;12.03;;
35743;SDS011;21867;52.012;4.324;2023-02-11T08:30:55;19.73;;;10.43;;
35743;SDS011;21867;52.012;4.324;2023-02-11T08:33:23;16.63;;;10.03;;
35743;SDS011;21867;52.012;4.324;2023-02-11T08:35:50;23.20;;;12.53;;
35743;SDS011;21867;52.012;4.324;2023-02-11T08:38:17;17.10;;;10.60;;
35743;SDS011;21867;52.012;4.324;2023-02-11T08:40:45;19.57;;;10.50;;
35743;SDS011;21867;52.012;4.324;2023-02-11T08:43:12;18.33;;;13.73;;
35743;SDS011;21867;52.012;4.324;2023-02-11T08:45:41;20.83;;;14.33;;
35743;SDS011;21867;52.012;4.324;2023-02-11T08:48:08;19.53;;;10.87;;
35743;SDS011;21867;52.012;4.324;2023-02-11T08:50:37;22.13;;;13.17;;
35743;SDS011;21867;52.012;4.324;2023-02-11T08:53:04;24.57;;;14.40;;
35743;SDS011;21867;52.012;4.324;2023-02-11T08:55:32;17.80;;;12.13;;
35743;SDS011;21867;52.012;4.324;2023-02-11T08:57:59;18.10;;;11.77;;
35743;SDS011;21867;52.012;4.324;2023-02-11T09:00:26;21.80;;;12.10;;
35743;SDS011;21867;52.012;4.324;2023-02-11T09:02:55;18.77;;;12.87;;
35743;SDS011;21867;52.012;4.324;2023-02-11T09:05:22;19.43;;;11.10;;
35743;SDS011;21867;52.012;4.324;2023-02-11T09:07:49;14.07;;;10.53;;
35743;SDS011;21867;52.012;4.324;2023-02-11T09:10:17;22.97;;;14.20;;
35743;SDS011;21867;52.012;4.324;2023-02-11T09:12:44;16.47;;;12.13;;
35743;SDS011;21867;52.012;4.324;2023-02-11T09:15:11;16.77;;;13.90;;
35743;SDS011;21867;52.012;4.324;2023-02-11T09:17:38;19.57;;;13.60;;
35743;SDS011;21867;52.012;4.324;2023-02-11T09:20:08;22.00;;;14.93;;
35743;SDS011;21867;52.012;4.324;2023-02-11T09:22:36;20.90;;;14.97;;
35743;SDS011;21867;52.012;4.324;2023-02-11T09:25:03;20.63;;;14.30;;
35743;SDS011;21867;52.012;4.324;2023-02-11T09:27:30;17.37;;;11.30;;
35743;SDS011;21867;52.012;4.324;2023-02-11T09:29:58;17.73;;;12.73;;
35743;SDS011;21867;52.012;4.324;2023-02-11T09:32:25;18.93;;;12.60;;
35743;SDS011;21867;52.012;4.324;2023-02-11T09:34:52;16.67;;;11.57;;
35743;SDS011;21867;52.012;4.324;2023-02-11T09:37:21;13.97;;;9.50;;
35743;SDS011;21867;52.012;4.324;2023-02-11T09:39:48;13.93;;;9.87;;
35743;SDS011;21867;52.012;4.324;2023-02-11T09:42:26;15.67;;;11.97;;
35743;SDS011;21867;52.012;4.324;2023-02-11T09:45:01;19.00;;;11.53;;
35743;SDS011;21867;52.012;4.324;2023-02-11T09:47:29;16.30;;;10.37;;
35743;SDS011;21867;52.012;4.324;2023-02-11T09:49:59;13.80;;;10.77;;
35743;SDS011;21867;52.012;4.324;2023-02-11T09:52:34;13.40;;;10.87;;
35743;SDS011;21867;52.012;4.324;2023-02-11T09:55:04;16.03;;;9.93;;
35743;SDS011;21867;52.012;4.324;2023-02-11T09:57:33;15.53;;;11.13;;
35743;SDS011;21867;52.012;4.324;2023-02-11T10:00:02;13.23;;;9.83;;
35743;SDS011;21867;52.012;4.324;2023-02-11T10:02:41;19.43;;;13.27;;
35743;SDS011;21867;52.012;4.324;2023-02-11T10:05:20;16.40;;;10.20;;
35743;SDS011;21867;52.012;4.324;2023-02-11T10:07:55;14.17;;;12.17;;
35743;SDS011;21867;52.012;4.324;2023-02-11T10:10:32;22.27;;;11.83;;
35743;SDS011;21867;52.012;4.324;2023-02-11T10:13:09;15.93;;;11.63;;
35743;SDS011;21867;52.012;4.324;2023-02-11T10:15:43;19.17;;;13.30;;
35743;SDS011;21867;52.012;4.324;2023-02-11T10:21:00;16.13;;;11.10;;
35743;SDS011;21867;52.012;4.324;2023-02-11T10:23:34;22.23;;;13.97;;
35743;SDS011;21867;52.012;4.324;2023-02-11T10:26:07;20.37;;;13.87;;
35743;SDS011;21867;52.012;4.324;2023-02-11T10:28:36;22.47;;;13.77;;
35743;SDS011;21867;52.012;4.324;2023-02-11T10:31:04;13.10;;;11.00;;
35743;SDS011;21867;52.012;4.324;2023-02-11T10:33:33;18.50;;;12.70;;
35743;SDS011;21867;52.012;4.324;2023-02-11T10:36:02;16.90;;;12.00;;
35743;SDS011;21867;52.012;4.324;2023-02-11T10:38:30;22.63;;;12.90;;
35743;SDS011;21867;52.012;4.324;2023-02-11T10:40:58;13.93;;;10.80;;
35743;SDS011;21867;52.012;4.324;2023-02-11T10:43:28;15.80;;;12.00;;
35743;SDS011;21867;52.012;4.324;2023-02-11T10:45:56;18.63;;;14.17;;
35743;SDS011;21867;52.012;4.324;2023-02-11T10:48:40;18.53;;;11.53;;
35743;SDS011;21867;52.012;4.324;2023-02-11T10:51:14;15.27;;;13.07;;
35743;SDS011;21867;52.012;4.324;2023-02-11T10:53:42;14.23;;;12.27;;
35743;SDS011;21867;52.012;4.324;2023-02-11T10:56:11;16.73;;;12.50;;
35743;SDS011;21867;52.012;4.324;2023-02-11T10:58:41;18.73;;;11.03;;
35743;SDS011;21867;52.012;4.324;2023-02-11T11:01:10;18.27;;;14.13;;
35743;SDS011;21867;52.012;4.324;2023-02-11T11:03:50;15.90;;;12.83;;
35743;SDS011;21867;52.012;4.324;2023-02-11T11:06:26;23.13;;;13.80;;
35743;SDS011;21867;52.012;4.324;2023-02-11T11:08:55;20.53;;;12.83;;
35743;SDS011;21867;52.012;4.324;2023-02-11T11:11:24;18.77;;;14.10;;
35743;SDS011;21867;52.012;4.324;2023-02-11T11:13:55;17.10;;;12.80;;
35743;SDS011;21867;52.012;4.324;2023-02-11T11:16:24;18.87;;;14.97;;
35743;SDS011;21867;52.012;4.324;2023-02-11T11:18:52;17.87;;;13.00;;
35743;SDS011;21867;52.012;4.324;2023-02-11T11:21:23;15.00;;;9.43;;
35743;SDS011;21867;52.012;4.324;2023-02-11T11:23:54;20.60;;;13.07;;
35743;SDS011;21867;52.012;4.324;2023-02-11T11:26:24;16.03;;;12.60;;
35743;SDS011;21867;52.012;4.324;2023-02-11T11:28:56;20.43;;;13.90;;
35743;SDS011;21867;52.012;4.324;2023-02-11T11:31:26;20.77;;;13.70;;
35743;SDS011;21867;52.012;4.324;2023-02-11T11:33:55;19.43;;;13.57;;
35743;SDS011;21867;52.012;4.324;2023-02-11T11:36:29;13.43;;;9.53;;
35743;SDS011;21867;52.012;4.324;2023-02-11T11:38:58;16.30;;;11.77;;
35743;SDS011;21867;52.012;4.324;2023-02-11T11:41:28;23.50;;;13.93;;
35743;SDS011;21867;52.012;4.324;2023-02-11T11:43:57;18.13;;;13.63;;
35743;SDS011;21867;52.012;4.324;2023-02-11T11:46:25;24.43;;;15.33;;
35743;SDS011;21867;52.012;4.324;2023-02-11T11:48:55;20.20;;;13.80;;
35743;SDS011;21867;52.012;4.324;2023-02-11T11:51:23;21.17;;;15.17;;
35743;SDS011;21867;52.012;4.324;2023-02-11T11:53:52;23.47;;;15.23;;
35743;SDS011;21867;52.012;4.324;2023-02-11T11:56:24;16.33;;;13.70;;
35743;SDS011;21867;52.012;4.324;2023-02-11T11:58:53;21.37;;;14.23;;
35743;SDS011;21867;52.012;4.324;2023-02-11T12:01:23;11.57;;;8.90;;
35743;SDS011;21867;52.012;4.324;2023-02-11T12:04:03;23.33;;;16.87;;
35743;SDS011;21867;52.012;4.324;2023-02-11T12:06:34;24.93;;;17.13;;
35743;SDS011;21867;52.012;4.324;2023-02-11T12:09:08;22.83;;;16.03;;
35743;SDS011;21867;52.012;4.324;2023-02-11T12:11:43;20.73;;;13.77;;
35743;SDS011;21867;52.012;4.324;2023-02-11T12:14:18;19.83;;;14.63;;
35743;SDS011;21867;52.012;4.324;2023-02-11T12:16:52;17.77;;;14.50;;
35743;SDS011;21867;52.012;4.324;2023-02-11T12:19:30;16.27;;;11.90;;
35743;SDS011;21867;52.012;4.324;2023-02-11T12:22:04;21.00;;;14.30;;
35743;SDS011;21867;52.012;4.324;2023-02-11T12:24:37;21.37;;;12.37;;
35743;SDS011;21867;52.012;4.324;2023-02-11T12:27:07;17.97;;;12.20;;
35743;SDS011;21867;52.012;4.324;2023-02-11T12:29:41;20.20;;;12.43;;
35743;SDS011;21867;52.012;4.324;2023-02-11T12:32:14;16.43;;;12.23;;
35743;SDS011;21867;52.012;4.324;2023-02-11T12:34:56;22.07;;;13.60;;
35743;SDS011;21867;52.012;4.324;2023-02-11T12:37:30;18.47;;;12.57;;
35743;SDS011;21867;52.012;4.324;2023-02-11T12:40:07;18.23;;;13.37;;
35743;SDS011;21867;52.012;4.324;2023-02-11T12:42:43;18.33;;;12.23;;
35743;SDS011;21867;52.012;4.324;2023-02-11T12:45:18;18.63;;;12.57;;
35743;SDS011;21867;52.012;4.324;2023-02-11T12:47:50;20.87;;;12.27;;
35743;SDS011;21867;52.012;4.324;2023-02-11T12:50:21;14.00;;;10.03;;
35743;SDS011;21867;52.012;4.324;2023-02-11T12:52:57;12.17;;;10.07;;
35743;SDS011;21867;52.012;4.324;2023-02-11T12:55:28;13.70;;;10.07;;
35743;SDS011;21867;52.012;4.324;2023-02-11T12:57:58;10.63;;;8.70;;
35743;SDS011;21867;52.012;4.324;2023-02-11T13:00:28;15.33;;;10.13;;
35743;SDS011;21867;52.012;4.324;2023-02-11T13:03:00;11.43;;;9.77;;
35743;SDS011;21867;52.012;4.324;2023-02-11T13:05:32;15.60;;;9.33;;
35743;SDS011;21867;52.012;4.324;2023-02-11T13:08:02;19.33;;;9.70;;
35743;SDS011;21867;52.012;4.324;2023-02-11T13:10:31;14.87;;;8.73;;
35743;SDS011;21867;52.012;4.324;2023-02-11T13:13:00;15.80;;;9.00;;
35743;SDS011;21867;52.012;4.324;2023-02-11T13:15:29;16.47;;;9.17;;
35743;SDS011;21867;52.012;4.324;2023-02-11T13:17:58;14.93;;;8.30;;
35743;SDS011;21867;52.012;4.324;2023-02-11T13:20:31;12.23;;;8.47;;
35743;SDS011;21867;52.012;4.324;2023-02-11T13:23:03;22.63;;;10.30;;
35743;SDS011;21867;52.012;4.324;2023-02-11T13:25:33;19.67;;;9.50;;
35743;SDS011;21867;52.012;4.324;2023-02-11T13:28:03;13.53;;;7.57;;
35743;SDS011;21867;52.012;4.324;2023-02-11T13:30:38;13.43;;;7.83;;
35743;SDS011;21867;52.012;4.324;2023-02-11T13:33:17;10.40;;;7.13;;
35743;SDS011;21867;52.012;4.324;2023-02-11T13:35:45;10.20;;;7.77;;
35743;SDS011;21867;52.012;4.324;2023-02-11T13:38:17;9.73;;;7.07;;
35743;SDS011;21867;52.012;4.324;2023-02-11T13:40:51;10.20;;;7.20;;
35743;SDS011;21867;52.012;4.324;2023-02-11T13:43:24;6.83;;;6.17;;
35743;SDS011;21867;52.012;4.324;2023-02-11T13:45:56;8.90;;;6.80;;
35743;SDS011;21867;52.012;4.324;2023-02-11T13:48:25;8.70;;;6.40;;
35743;SDS011;21867;52.012;4.324;2023-02-11T13:50:54;7.07;;;5.80;;
35743;SDS011;21867;52.012;4.324;2023-02-11T13:53:22;9.57;;;6.80;;
35743;SDS011;21867;52.012;4.324;2023-02-11T13:55:50;8.53;;;6.17;;
35743;SDS011;21867;52.012;4.324;2023-02-11T13:58:18;7.83;;;5.53;;
35743;SDS011;21867;52.012;4.324;2023-02-11T14:01:00;7.83;;;6.00;;
35743;SDS011;21867;52.012;4.324;2023-02-11T14:03:29;9.17;;;5.10;;
35743;SDS011;21867;52.012;4.324;2023-02-11T14:06:09;7.07;;;5.63;;
35743;SDS011;21867;52.012;4.324;2023-02-11T14:08:36;12.43;;;6.60;;
35743;SDS011;21867;52.012;4.324;2023-02-11T14:11:05;8.70;;;7.20;;
35743;SDS011;21867;52.012;4.324;2023-02-11T14:13:33;7.53;;;5.40;;
35743;SDS011;21867;52.012;4.324;2023-02-11T14:16:09;8.93;;;6.50;;
35743;SDS011;21867;52.012;4.324;2023-02-11T14:18:37;7.87;;;6.77;;
35743;SDS011;21867;52.012;4.324;2023-02-11T14:21:12;8.53;;;6.37;;
35743;SDS011;21867;52.012;4.324;2023-02-11T14:23:40;10.70;;;6.03;;
35743;SDS011;21867;52.012;4.324;2023-02-11T14:26:14;10.60;;;6.33;;
35743;SDS011;21867;52.012;4.324;2023-02-11T14:28:49;12.30;;;6.73;;
35743;SDS011;21867;52.012;4.324;2023-02-11T14:31:20;12.83;;;6.93;;
35743;SDS011;21867;52.012;4.324;2023-02-11T14:33:51;10.27;;;6.23;;
35743;SDS011;21867;52.012;4.324;2023-02-11T14:39:13;10.90;;;7.20;;
35743;SDS011;21867;52.012;4.324;2023-02-11T14:41:44;12.43;;;6.47;;
35743;SDS011;21867;52.012;4.324;2023-02-11T14:44:13;16.07;;;6.20;;
35743;SDS011;21867;52.012;4.324;2023-02-11T14:46:44;10.33;;;6.57;;
35743;SDS011;21867;52.012;4.324;2023-02-11T14:49:15;9.67;;;5.90;;
35743;SDS011;21867;52.012;4.324;2023-02-11T14:51:44;11.40;;;6.53;;
35743;SDS011;21867;52.012;4.324;2023-02-11T14:54:13;7.23;;;5.90;;